createdAt,value
2018-11-22T00:07:02.111Z,97294.87
2018-11-22T00:17:20.201Z,97294.13
2018-11-22T00:27:38.121Z,97297.29
2018-11-22T00:37:56.213Z,97308.68
2018-11-22T00:48:14.128Z,97320.33
2018-11-22T00:58:32.398Z,97325.73
2018-11-22T01:08:50.652Z,97328.07
2018-11-22T01:19:08.986Z,97331.87
2018-11-22T01:29:27.402Z,97336.88
2018-11-22T01:39:45.477Z,97341.80
2018-11-22T01:50:03.192Z,97344.84
2018-11-22T02:00:23.732Z,97350.33
2018-11-22T02:10:41.561Z,97350.28
2018-11-22T02:20:59.617Z,97360.10
2018-11-22T02:31:18.318Z,97361.12
2018-11-22T02:41:37.055Z,97375.67
2018-11-22T02:51:55.997Z,97374.54
2018-11-22T03:02:14.451Z,97382.42
2018-11-22T03:12:32.608Z,97381.01
2018-11-22T03:22:50.806Z,97378.20
2018-11-22T03:33:08.979Z,97393.73
2018-11-22T03:43:27.074Z,97407.08
2018-11-22T03:53:45.202Z,97404.76
2018-11-22T04:04:03.606Z,97415.16
2018-11-22T04:14:22.082Z,97414.43
2018-11-22T04:24:40.097Z,97421.97
2018-11-22T04:34:57.988Z,97430.13
2018-11-22T04:45:16.215Z,97435.92
2018-11-22T04:55:34.342Z,97434.95
2018-11-22T05:05:52.447Z,97451.50
2018-11-22T05:16:10.528Z,97453.81
2018-11-22T05:26:28.613Z,97458.53
2018-11-22T05:36:46.836Z,97472.38
2018-11-22T05:47:05.860Z,97482.72
2018-11-22T05:57:26.031Z,97477.38
2018-11-22T06:07:43.895Z,97488.61
2018-11-22T06:18:02.473Z,97502.23
2018-11-22T06:28:20.746Z,97507.58
2018-11-22T06:38:38.819Z,97513.19
2018-11-22T06:48:56.896Z,97520.04
2018-11-22T06:59:14.963Z,97528.55
2018-11-22T07:09:33.274Z,97534.35
2018-11-22T07:19:51.311Z,97541.38
2018-11-22T07:30:11.767Z,97543.55
2018-11-22T07:40:31.101Z,97549.73
2018-11-22T07:50:49.135Z,97557.01
2018-11-22T08:01:07.512Z,97554.69
2018-11-22T08:11:25.567Z,97563.19
2018-11-22T08:21:43.722Z,97569.39
2018-11-22T08:32:01.680Z,97572.09
2018-11-22T08:42:20.159Z,97568.25
2018-11-22T08:52:38.224Z,97567.91
2018-11-22T09:02:56.486Z,97575.81
2018-11-22T09:13:14.210Z,97581.38
2018-11-22T09:23:35.493Z,97578.29
2018-11-22T09:33:50.293Z,97579.84
2018-11-22T09:44:09.666Z,97579.09
2018-11-22T09:54:27.760Z,97577.57
2018-11-22T10:04:45.630Z,97571.52
2018-11-22T10:15:03.667Z,97569.19
2018-11-22T10:25:21.750Z,97565.41
2018-11-22T10:35:40.047Z,97568.73
2018-11-22T10:45:58.112Z,97564.84
2018-11-22T10:56:16.132Z,97560.10
2018-11-22T11:06:51.796Z,97562.45
2018-11-22T11:17:09.557Z,97560.34
2018-11-22T11:27:27.835Z,97568.58
2018-11-22T11:37:45.851Z,97563.76
2018-11-22T11:48:03.691Z,97561.29
2018-11-22T11:58:21.625Z,97561.13
2018-11-22T12:08:39.764Z,97547.04
2018-11-22T12:18:58.225Z,97549.52
2018-11-22T12:29:16.246Z,97546.08
2018-11-22T12:39:34.207Z,97557.66
2018-11-22T12:49:52.321Z,97556.42
2018-11-22T13:00:15.044Z,97553.23
2018-11-22T13:10:32.811Z,97555.29
2018-11-22T13:20:50.820Z,97550.14
2018-11-22T13:31:09.108Z,97562.00
2018-11-22T13:41:27.241Z,97560.20
2018-11-22T13:51:45.132Z,97567.74
2018-11-22T14:02:03.221Z,97563.82
2018-11-22T14:12:21.487Z,97572.58
2018-11-22T14:22:39.396Z,97570.45
2018-11-22T14:32:57.351Z,97570.05
2018-11-22T14:43:15.619Z,97564.59
2018-11-22T14:53:33.651Z,97574.45
2018-11-22T15:03:52.600Z,97570.02
2018-11-22T15:14:10.314Z,97568.30
2018-11-22T15:24:28.589Z,97576.72
2018-11-22T15:34:47.218Z,97582.14
2018-11-22T15:45:04.947Z,97591.95
2018-11-22T15:55:23.433Z,97597.16
2018-11-22T16:05:41.154Z,97594.05
2018-11-22T16:15:59.212Z,97609.13
2018-11-22T16:26:16.946Z,97615.08
2018-11-22T16:36:35.501Z,97620.92
2018-11-22T16:46:54.633Z,97623.16
2018-11-22T16:57:12.668Z,97624.41
2018-11-22T17:07:30.794Z,97629.30
2018-11-22T17:17:48.954Z,97621.96
2018-11-22T17:28:07.973Z,97625.63
2018-11-22T17:38:25.935Z,97621.79
2018-11-22T17:48:44.160Z,97632.63
2018-11-22T17:59:02.642Z,97625.94
2018-11-22T18:09:20.683Z,97625.17
2018-11-22T18:19:39.154Z,97623.47
2018-11-22T18:29:57.169Z,97620.84
2018-11-22T18:40:17.130Z,97614.09
2018-11-22T18:50:35.950Z,97613.88
2018-11-22T19:00:53.654Z,97618.25
2018-11-22T19:11:12.655Z,97629.41
2018-11-22T19:21:30.352Z,97622.13
2018-11-22T19:31:48.078Z,97629.77
2018-11-22T19:42:06.453Z,97642.06
2018-11-22T19:52:24.440Z,97640.04
2018-11-22T20:02:43.269Z,97642.27
2018-11-22T20:13:01.415Z,97633.95
2018-11-22T20:23:21.918Z,97637.89
2018-11-22T20:33:37.856Z,97643.13
2018-11-22T20:43:55.891Z,97649.17
2018-11-22T20:54:14.086Z,97654.27
2018-11-22T21:04:32.443Z,97647.07
2018-11-22T21:14:50.642Z,97661.75
2018-11-22T21:25:11.026Z,97654.05
2018-11-22T21:35:29.017Z,97647.28
2018-11-22T21:45:46.766Z,97645.53
2018-11-22T21:56:04.690Z,97643.45
2018-11-22T22:06:23.111Z,97640.75
2018-11-22T22:16:41.631Z,97650.48
2018-11-22T22:26:59.855Z,97659.24
2018-11-22T22:37:17.628Z,97652.98
2018-11-22T22:47:36.876Z,97661.94
2018-11-22T22:57:54.917Z,97657.64
2018-11-22T23:08:12.849Z,97647.55
2018-11-22T23:18:30.822Z,97648.06
2018-11-22T23:28:49.206Z,97644.64
2018-11-22T23:39:10.271Z,97642.47
2018-11-22T23:49:28.643Z,97650.06
2018-11-22T23:59:46.371Z,97651.67
